createdAt,value
2019-05-18T00:00:33.353Z,18.09
2019-05-18T00:01:38.241Z,18.06
2019-05-18T00:02:42.487Z,18.04
2019-05-18T00:03:47.211Z,18.05
2019-05-18T00:04:51.438Z,18.03
2019-05-18T00:05:56.514Z,18.02
2019-05-18T00:07:00.780Z,18.02
2019-05-18T00:08:05.498Z,18.02
2019-05-18T00:09:10.637Z,18.00
2019-05-18T00:10:15.396Z,18.01
2019-05-18T00:11:19.704Z,18.00
2019-05-18T00:12:26.053Z,17.99
2019-05-18T00:13:30.225Z,17.99
2019-05-18T00:14:35.787Z,17.99
2019-05-18T00:15:40.341Z,17.97
2019-05-18T00:16:45.068Z,17.97
2019-05-18T00:17:49.243Z,17.95
2019-05-18T00:18:54.025Z,17.93
2019-05-18T00:19:58.219Z,17.93
2019-05-18T00:21:03.083Z,17.88
2019-05-18T00:22:07.249Z,17.80
2019-05-18T00:23:11.980Z,17.76
2019-05-18T00:24:16.357Z,17.75
2019-05-18T00:25:21.232Z,17.72
2019-05-18T00:26:25.741Z,17.73
2019-05-18T00:27:32.163Z,17.72
2019-05-18T00:28:36.341Z,17.72
2019-05-18T00:29:41.136Z,17.72
2019-05-18T00:30:45.311Z,17.71
2019-05-18T00:31:51.252Z,17.67
2019-05-18T00:32:55.608Z,17.65
2019-05-18T00:34:00.416Z,17.64
2019-05-18T00:35:06.971Z,17.64
2019-05-18T00:36:11.781Z,17.59
2019-05-18T00:37:16.219Z,17.58
2019-05-18T00:38:21.092Z,17.56
2019-05-18T00:39:25.473Z,17.54
2019-05-18T00:40:30.215Z,17.54
2019-05-18T00:41:34.458Z,17.55
2019-05-18T00:42:39.373Z,17.56
2019-05-18T00:43:43.551Z,17.56
2019-05-18T00:44:49.252Z,17.53
2019-05-18T00:45:53.449Z,17.51
2019-05-18T00:46:58.190Z,17.50
2019-05-18T00:48:02.484Z,17.51
2019-05-18T00:49:07.453Z,17.50
2019-05-18T00:50:13.060Z,17.51
2019-05-18T00:51:17.911Z,17.49
2019-05-18T00:52:22.101Z,17.45
2019-05-18T00:53:27.260Z,17.41
2019-05-18T00:54:31.506Z,17.39
2019-05-18T00:55:36.241Z,17.41
2019-05-18T00:56:40.534Z,17.40
2019-05-18T00:57:45.273Z,17.39
2019-05-18T00:58:49.666Z,17.34
2019-05-18T00:59:54.398Z,17.30
2019-05-18T01:00:58.576Z,17.29
2019-05-18T01:02:03.479Z,17.29
2019-05-18T01:03:08.729Z,17.28
2019-05-18T01:04:13.515Z,17.22
2019-05-18T01:05:17.733Z,17.20
2019-05-18T01:06:22.462Z,17.18
2019-05-18T01:07:26.779Z,17.21
2019-05-18T01:08:31.623Z,17.23
2019-05-18T01:09:35.981Z,17.22
2019-05-18T01:10:40.716Z,17.25
2019-05-18T01:11:44.892Z,17.26
2019-05-18T01:12:49.691Z,17.27
2019-05-18T01:13:53.871Z,17.26
2019-05-18T01:14:58.854Z,17.27
2019-05-18T01:16:03.302Z,17.27
2019-05-18T01:17:08.034Z,17.27
2019-05-18T01:18:12.292Z,17.28
2019-05-18T01:19:17.427Z,17.26
2019-05-18T01:20:21.587Z,17.24
2019-05-18T01:21:26.387Z,17.24
2019-05-18T01:22:30.590Z,17.25
2019-05-18T01:23:35.328Z,17.23
2019-05-18T01:24:39.583Z,17.24
2019-05-18T01:25:44.417Z,17.25
2019-05-18T01:26:48.721Z,17.27
2019-05-18T01:27:53.453Z,17.28
2019-05-18T01:29:02.471Z,17.28
2019-05-18T01:30:08.463Z,17.29
2019-05-18T01:31:12.726Z,17.28
2019-05-18T01:32:17.524Z,17.28
2019-05-18T01:33:21.696Z,17.26
2019-05-18T01:34:26.425Z,17.24
2019-05-18T01:35:30.658Z,17.23
2019-05-18T01:36:35.411Z,17.23
2019-05-18T01:37:39.595Z,17.22
2019-05-18T01:38:44.328Z,17.21
2019-05-18T01:39:48.698Z,17.20
2019-05-18T01:40:53.469Z,17.20
2019-05-18T01:41:57.729Z,17.20
2019-05-18T01:43:02.575Z,17.20
2019-05-18T01:44:06.826Z,17.18
2019-05-18T01:45:16.997Z,17.17
2019-05-18T01:46:18.240Z,17.16
2019-05-18T01:47:22.968Z,17.15
2019-05-18T01:48:27.217Z,17.13
2019-05-18T01:49:32.250Z,17.09
2019-05-18T01:50:36.498Z,17.08
2019-05-18T01:51:41.305Z,17.05
2019-05-18T01:52:45.515Z,17.04
2019-05-18T01:53:50.246Z,17.03
2019-05-18T01:54:54.427Z,17.02
2019-05-18T01:55:59.158Z,17.00
2019-05-18T01:57:03.335Z,17.00
2019-05-18T01:58:08.280Z,16.99
2019-05-18T01:59:14.273Z,17.00
2019-05-18T02:00:19.177Z,16.95
2019-05-18T02:01:23.353Z,16.94
2019-05-18T02:02:28.085Z,16.91
2019-05-18T02:03:32.354Z,16.92
2019-05-18T02:04:37.453Z,16.88
2019-05-18T02:05:41.638Z,16.87
2019-05-18T02:06:46.451Z,16.83
2019-05-18T02:07:50.816Z,16.79
2019-05-18T02:08:55.762Z,16.76
2019-05-18T02:09:59.961Z,16.78
2019-05-18T02:11:07.746Z,16.79
2019-05-18T02:12:12.058Z,16.76
2019-05-18T02:13:17.151Z,16.74
2019-05-18T02:14:21.395Z,16.74
2019-05-18T02:15:26.289Z,16.74
2019-05-18T02:16:30.488Z,16.72
2019-05-18T02:17:35.226Z,16.72
2019-05-18T02:18:41.861Z,16.73
2019-05-18T02:19:46.881Z,16.71
2019-05-18T02:20:51.129Z,16.70
2019-05-18T02:21:56.226Z,16.68
2019-05-18T02:23:00.402Z,16.67
2019-05-18T02:24:05.306Z,16.58
2019-05-18T02:25:09.521Z,16.58
2019-05-18T02:26:14.373Z,16.56
2019-05-18T02:27:18.628Z,16.55
2019-05-18T02:28:23.364Z,16.57
2019-05-18T02:29:27.560Z,16.56
2019-05-18T02:30:32.299Z,16.57
2019-05-18T02:31:36.684Z,16.57
2019-05-18T02:32:41.483Z,16.57
2019-05-18T02:33:45.687Z,16.58
2019-05-18T02:34:50.549Z,16.57
2019-05-18T02:35:54.862Z,16.55
2019-05-18T02:36:59.605Z,16.55
2019-05-18T02:38:15.102Z,16.55
2019-05-18T02:39:21.067Z,16.55
2019-05-18T02:40:26.873Z,16.54
2019-05-18T02:41:31.726Z,16.53
2019-05-18T02:42:36.245Z,16.53
2019-05-18T02:43:41.116Z,16.52
2019-05-18T02:44:45.350Z,16.51
2019-05-18T02:45:50.092Z,16.52
2019-05-18T02:46:54.282Z,16.51
2019-05-18T02:47:59.072Z,16.51
2019-05-18T02:49:03.305Z,16.50
2019-05-18T02:50:08.472Z,16.49
2019-05-18T02:51:12.639Z,16.49
2019-05-18T02:52:17.568Z,16.49
2019-05-18T02:53:21.753Z,16.39
2019-05-18T02:54:27.063Z,16.49
2019-05-18T02:55:31.245Z,16.48
2019-05-18T02:56:36.519Z,16.46
2019-05-18T02:57:40.867Z,16.44
2019-05-18T02:58:46.827Z,16.43
2019-05-18T02:59:51.083Z,16.43
2019-05-18T03:00:55.858Z,16.43
2019-05-18T03:02:00.112Z,16.40
2019-05-18T03:03:05.503Z,16.40
2019-05-18T03:04:09.680Z,16.38
2019-05-18T03:05:14.525Z,16.37
2019-05-18T03:06:18.851Z,16.39
2019-05-18T03:07:23.628Z,16.37
2019-05-18T03:08:27.803Z,16.36
2019-05-18T03:09:32.640Z,16.36
2019-05-18T03:10:36.817Z,16.34
2019-05-18T03:11:41.577Z,16.33
2019-05-18T03:12:45.769Z,16.26
2019-05-18T03:13:50.569Z,16.16
2019-05-18T03:14:54.842Z,16.11
2019-05-18T03:16:00.523Z,16.03
2019-05-18T03:17:05.201Z,16.04
2019-05-18T03:18:10.104Z,16.03
2019-05-18T03:19:14.292Z,16.06
2019-05-18T03:20:19.052Z,16.08
2019-05-18T03:21:23.227Z,16.10
2019-05-18T03:22:27.981Z,16.10
2019-05-18T03:23:32.225Z,16.11
2019-05-18T03:24:37.315Z,16.14
2019-05-18T03:25:41.651Z,16.16
2019-05-18T03:26:46.417Z,16.15
2019-05-18T03:27:50.589Z,16.16
2019-05-18T03:28:55.413Z,16.12
2019-05-18T03:30:00.570Z,16.12
2019-05-18T03:31:08.280Z,16.11
2019-05-18T03:32:12.809Z,16.12
2019-05-18T03:33:17.667Z,16.07
2019-05-18T03:34:21.862Z,16.03
2019-05-18T03:35:26.630Z,16.00
2019-05-18T03:36:30.847Z,16.03
2019-05-18T03:37:35.819Z,16.05
2019-05-18T03:38:41.275Z,16.05
2019-05-18T03:39:47.242Z,16.06
2019-05-18T03:40:51.486Z,16.06
2019-05-18T03:41:56.374Z,16.06
2019-05-18T03:43:00.603Z,16.06
2019-05-18T03:44:05.698Z,16.06
2019-05-18T03:45:09.982Z,16.05
2019-05-18T03:46:14.715Z,16.03
2019-05-18T03:47:19.077Z,16.04
2019-05-18T03:48:23.835Z,16.04
2019-05-18T03:49:28.262Z,16.00
2019-05-18T03:50:33.154Z,16.01
2019-05-18T03:51:37.375Z,15.99
2019-05-18T03:52:42.277Z,15.89
2019-05-18T03:53:46.525Z,15.91
2019-05-18T03:54:51.406Z,15.93
2019-05-18T03:55:55.710Z,15.86
2019-05-18T03:57:00.424Z,15.95
2019-05-18T03:58:04.772Z,15.96
2019-05-18T03:59:09.528Z,15.94
2019-05-18T04:00:14.074Z,15.98
2019-05-18T04:01:18.876Z,15.99
2019-05-18T04:02:23.052Z,15.99
2019-05-18T04:03:27.856Z,15.97
2019-05-18T04:04:32.035Z,15.99
2019-05-18T04:05:36.794Z,15.97
2019-05-18T04:06:41.361Z,15.96
2019-05-18T04:07:46.116Z,15.96
2019-05-18T04:08:50.292Z,15.97
2019-05-18T04:09:55.129Z,15.95
2019-05-18T04:10:59.312Z,15.96
2019-05-18T04:12:05.454Z,15.95
2019-05-18T04:13:09.723Z,15.94
2019-05-18T04:14:14.480Z,15.94
2019-05-18T04:15:18.829Z,15.96
2019-05-18T04:16:23.563Z,15.98
2019-05-18T04:17:27.786Z,15.98
2019-05-18T04:18:32.521Z,15.98
2019-05-18T04:19:46.405Z,15.94
2019-05-18T04:20:43.256Z,15.93
2019-05-18T04:21:47.583Z,15.93
2019-05-18T04:22:52.368Z,15.95
2019-05-18T04:23:56.606Z,15.98
2019-05-18T04:25:01.340Z,15.98
2019-05-18T04:26:05.510Z,16.00
2019-05-18T04:27:10.307Z,16.00
2019-05-18T04:28:14.683Z,16.00
2019-05-18T04:29:19.486Z,15.99
2019-05-18T04:30:23.675Z,16.00
2019-05-18T04:31:32.109Z,16.00
2019-05-18T04:32:34.424Z,16.00
2019-05-18T04:33:39.193Z,15.99
2019-05-18T04:34:43.353Z,16.00
2019-05-18T04:35:48.243Z,15.98
2019-05-18T04:36:52.611Z,15.97
2019-05-18T04:37:57.485Z,15.96
2019-05-18T04:39:01.738Z,15.96
2019-05-18T04:40:08.270Z,15.95
2019-05-18T04:41:12.493Z,15.95
2019-05-18T04:42:17.290Z,15.91
2019-05-18T04:43:21.468Z,15.91
2019-05-18T04:44:26.197Z,15.92
2019-05-18T04:45:30.406Z,15.93
2019-05-18T04:46:34.927Z,15.96
2019-05-18T04:47:39.227Z,15.97
2019-05-18T04:48:43.993Z,15.98
2019-05-18T04:50:03.897Z,16.01
2019-05-18T04:50:54.712Z,16.02
2019-05-18T04:51:58.888Z,16.03
2019-05-18T04:53:03.617Z,16.04
2019-05-18T04:54:07.834Z,16.05
2019-05-18T04:55:12.647Z,16.05
2019-05-18T04:56:17.150Z,16.04
2019-05-18T04:57:22.133Z,16.06
2019-05-18T04:58:26.311Z,16.07
2019-05-18T04:59:31.059Z,16.09
2019-05-18T05:00:35.250Z,16.05
2019-05-18T05:01:40.055Z,16.04
2019-05-18T05:02:44.240Z,16.05
2019-05-18T05:03:49.059Z,16.06
2019-05-18T05:04:56.620Z,16.08
2019-05-18T05:05:59.657Z,16.11
2019-05-18T05:07:04.477Z,16.14
2019-05-18T05:08:09.378Z,16.14
2019-05-18T05:09:13.549Z,16.19
2019-05-18T05:10:18.547Z,16.22
2019-05-18T05:11:22.766Z,16.25
2019-05-18T05:12:27.548Z,16.28
2019-05-18T05:13:31.766Z,16.30
2019-05-18T05:14:36.495Z,16.29
2019-05-18T05:15:40.677Z,16.30
2019-05-18T05:16:45.428Z,16.31
2019-05-18T05:17:49.699Z,16.31
2019-05-18T05:18:54.431Z,16.29
2019-05-18T05:19:58.623Z,16.24
2019-05-18T05:21:05.456Z,16.25
2019-05-18T05:22:09.736Z,16.27
2019-05-18T05:23:14.490Z,16.31
2019-05-18T05:24:18.673Z,16.33
2019-05-18T05:25:23.409Z,16.32
2019-05-18T05:26:27.648Z,16.30
2019-05-18T05:27:32.486Z,16.32
2019-05-18T05:28:36.695Z,16.34
2019-05-18T05:29:41.421Z,16.36
2019-05-18T05:31:51.123Z,16.45
2019-05-18T05:32:56.180Z,16.43
2019-05-18T05:34:00.395Z,16.46
2019-05-18T05:35:06.353Z,16.47
2019-05-18T05:36:10.602Z,16.46
2019-05-18T05:37:15.328Z,16.47
2019-05-18T05:38:19.503Z,16.50
2019-05-18T05:39:24.274Z,16.52
2019-05-18T05:40:29.193Z,16.54
2019-05-18T05:41:34.099Z,16.53
2019-05-18T05:42:39.305Z,16.55
2019-05-18T05:43:44.249Z,16.56
2019-05-18T05:44:48.604Z,16.59
2019-05-18T05:45:53.327Z,16.61
2019-05-18T05:46:57.519Z,16.65
2019-05-18T05:48:02.248Z,16.67
2019-05-18T05:49:06.423Z,16.71
2019-05-18T05:50:11.246Z,16.73
2019-05-18T05:51:15.486Z,16.74
2019-05-18T05:52:20.214Z,16.81
2019-05-18T05:53:24.514Z,16.82
2019-05-18T05:54:29.407Z,16.85
2019-05-18T05:55:33.647Z,16.88
2019-05-18T05:56:38.708Z,16.90
2019-05-18T05:57:43.101Z,16.94
2019-05-18T05:58:47.840Z,16.98
2019-05-18T05:59:52.017Z,17.02
2019-05-18T06:00:56.790Z,17.04
2019-05-18T06:02:01.245Z,17.07
2019-05-18T06:03:05.953Z,17.11
2019-05-18T06:04:10.198Z,17.12
2019-05-18T06:05:14.982Z,17.16
2019-05-18T06:06:19.225Z,17.19
2019-05-18T06:07:23.981Z,17.22
2019-05-18T06:08:28.461Z,17.25
2019-05-18T06:09:33.189Z,17.29
2019-05-18T06:10:37.366Z,17.33
2019-05-18T06:11:42.165Z,17.33
2019-05-18T06:12:46.389Z,17.35
2019-05-18T06:13:51.261Z,17.40
2019-05-18T06:14:55.388Z,17.42
2019-05-18T06:16:01.115Z,17.47
2019-05-18T06:17:08.326Z,17.49
2019-05-18T06:18:11.716Z,17.49
2019-05-18T06:19:15.990Z,17.58
2019-05-18T06:20:21.431Z,17.62
2019-05-18T06:21:25.593Z,17.66
2019-05-18T06:22:30.431Z,17.68
2019-05-18T06:23:34.622Z,17.72
2019-05-18T06:24:39.460Z,17.76
2019-05-18T06:25:43.903Z,17.80
2019-05-18T06:26:48.746Z,17.84
2019-05-18T06:27:52.886Z,17.86
2019-05-18T06:28:57.834Z,17.90
2019-05-18T06:30:02.168Z,17.96
2019-05-18T06:31:06.883Z,17.97
2019-05-18T06:32:11.062Z,17.97
2019-05-18T06:33:15.885Z,18.00
2019-05-18T06:34:20.169Z,18.03
2019-05-18T06:35:24.906Z,18.07
2019-05-18T06:36:29.092Z,18.07
2019-05-18T06:37:33.821Z,18.04
2019-05-18T06:38:38.021Z,18.08
2019-05-18T06:39:42.941Z,18.11
2019-05-18T06:40:47.158Z,18.14
2019-05-18T06:41:51.985Z,18.19
2019-05-18T06:42:56.537Z,18.22
2019-05-18T06:44:02.310Z,18.24
2019-05-18T06:45:07.220Z,18.28
2019-05-18T06:46:11.986Z,18.31
2019-05-18T06:47:16.175Z,18.33
2019-05-18T06:48:21.020Z,18.35
2019-05-18T06:49:25.265Z,18.39
2019-05-18T06:50:31.148Z,18.42
2019-05-18T06:51:35.354Z,18.45
2019-05-18T06:52:40.085Z,18.48
2019-05-18T06:53:44.298Z,18.49
2019-05-18T06:54:49.102Z,18.53
2019-05-18T06:55:53.282Z,18.57
2019-05-18T06:56:58.205Z,18.59
2019-05-18T06:58:02.483Z,18.64
2019-05-18T06:59:07.483Z,18.68
2019-05-18T07:00:11.792Z,18.71
2019-05-18T07:01:16.528Z,18.71
2019-05-18T07:02:21.273Z,18.72
2019-05-18T07:03:26.305Z,18.72
2019-05-18T07:04:30.445Z,18.73
2019-05-18T07:05:36.162Z,18.76
2019-05-18T07:06:40.533Z,18.79
2019-05-18T07:07:45.267Z,18.82
2019-05-18T07:08:49.454Z,18.81
2019-05-18T07:09:54.186Z,18.81
2019-05-18T07:10:58.391Z,18.81
2019-05-18T07:12:03.279Z,18.80
2019-05-18T07:13:07.453Z,18.81
2019-05-18T07:14:24.837Z,18.86
2019-05-18T07:15:18.224Z,18.89
2019-05-18T07:16:22.958Z,18.91
2019-05-18T07:17:27.270Z,18.93
2019-05-18T07:18:32.008Z,18.96
2019-05-18T07:19:36.182Z,18.97
2019-05-18T07:20:41.629Z,18.97
2019-05-18T07:21:45.802Z,18.99
2019-05-18T07:22:51.649Z,18.99
2019-05-18T07:23:55.830Z,19.02
2019-05-18T07:25:00.566Z,19.03
2019-05-18T07:26:04.810Z,19.04
2019-05-18T07:27:09.556Z,19.05
2019-05-18T07:28:13.749Z,19.06
2019-05-18T07:29:18.595Z,19.06
2019-05-18T07:30:22.776Z,19.07
2019-05-18T07:31:27.509Z,19.10
2019-05-18T07:32:31.729Z,19.14
2019-05-18T07:33:37.554Z,19.17
2019-05-18T07:34:41.730Z,19.20
2019-05-18T07:35:46.573Z,19.20
2019-05-18T07:36:50.850Z,19.23
2019-05-18T07:37:55.585Z,19.25
2019-05-18T07:39:00.761Z,19.27
2019-05-18T07:40:07.837Z,19.30
2019-05-18T07:41:12.037Z,19.30
2019-05-18T07:42:17.847Z,19.31
2019-05-18T07:43:22.018Z,19.33
2019-05-18T07:44:27.856Z,19.32
2019-05-18T07:45:32.019Z,19.34
2019-05-18T07:46:36.791Z,19.37
2019-05-18T07:47:40.992Z,19.39
2019-05-18T07:48:45.813Z,19.38
2019-05-18T07:49:49.982Z,19.41
2019-05-18T07:50:54.785Z,19.39
2019-05-18T07:51:59.044Z,19.41
2019-05-18T07:53:03.845Z,19.42
2019-05-18T07:54:08.083Z,19.44
2019-05-18T07:55:12.809Z,19.47
2019-05-18T07:56:17.097Z,19.48
2019-05-18T07:57:21.941Z,19.51
2019-05-18T07:58:26.115Z,19.54
2019-05-18T07:59:30.942Z,19.56
2019-05-18T08:00:35.173Z,19.57
2019-05-18T08:01:39.849Z,19.60
2019-05-18T08:02:45.179Z,19.63
2019-05-18T08:03:50.121Z,19.66
2019-05-18T08:04:54.334Z,19.68
2019-05-18T08:05:59.069Z,19.67
2019-05-18T08:07:03.353Z,19.66
2019-05-18T08:08:08.208Z,19.66
2019-05-18T08:09:12.398Z,19.65
2019-05-18T08:10:20.563Z,19.64
2019-05-18T08:11:24.744Z,19.63
2019-05-18T08:12:29.506Z,19.62
2019-05-18T08:13:33.782Z,19.62
2019-05-18T08:14:38.636Z,19.61
2019-05-18T08:15:42.812Z,19.61
2019-05-18T08:16:47.737Z,19.59
2019-05-18T08:17:51.920Z,19.63
2019-05-18T08:18:58.208Z,19.62
2019-05-18T08:20:02.648Z,19.58
2019-05-18T08:21:08.238Z,19.64
2019-05-18T08:22:12.432Z,19.66
2019-05-18T08:23:18.302Z,19.67
2019-05-18T08:24:22.523Z,19.69
2019-05-18T08:25:27.253Z,19.66
2019-05-18T08:26:31.513Z,19.65
2019-05-18T08:27:36.226Z,19.62
2019-05-18T08:28:40.493Z,19.61
2019-05-18T08:29:45.290Z,19.62
2019-05-18T08:30:49.465Z,19.64
2019-05-18T08:31:54.341Z,19.66
2019-05-18T08:32:58.528Z,19.65
2019-05-18T08:34:03.354Z,19.65
2019-05-18T08:35:08.865Z,19.66
2019-05-18T08:36:13.601Z,19.68
2019-05-18T08:37:17.827Z,19.66
2019-05-18T08:38:22.557Z,19.68
2019-05-18T08:39:26.767Z,19.68
2019-05-18T08:40:32.890Z,19.69
2019-05-18T08:41:37.093Z,19.70
2019-05-18T08:42:41.972Z,19.72
2019-05-18T08:43:46.156Z,19.72
2019-05-18T08:44:51.151Z,19.72
2019-05-18T08:45:55.394Z,19.73
2019-05-18T08:47:00.187Z,19.75
2019-05-18T08:48:05.332Z,19.79
2019-05-18T08:49:10.135Z,19.82
2019-05-18T08:50:14.467Z,19.86
2019-05-18T08:51:19.191Z,19.87
2019-05-18T08:52:23.418Z,19.89
2019-05-18T08:53:28.421Z,19.92
2019-05-18T08:54:32.604Z,19.95
2019-05-18T08:55:37.546Z,19.97
2019-05-18T08:56:41.724Z,19.99
2019-05-18T08:57:46.460Z,20.01
2019-05-18T08:58:50.637Z,20.03
2019-05-18T08:59:55.379Z,20.06
2019-05-18T09:00:59.599Z,20.09
2019-05-18T09:02:04.942Z,20.08
2019-05-18T09:03:09.195Z,20.10
2019-05-18T09:04:13.925Z,20.11
2019-05-18T09:05:18.103Z,20.12
2019-05-18T09:06:22.873Z,20.14
2019-05-18T09:07:27.057Z,20.16
2019-05-18T09:08:31.855Z,20.18
2019-05-18T09:09:36.057Z,20.16
2019-05-18T09:10:40.861Z,20.17
2019-05-18T09:11:45.254Z,20.18
2019-05-18T09:12:50.057Z,20.20
2019-05-18T09:13:54.242Z,20.24
2019-05-18T09:14:59.056Z,20.25
2019-05-18T09:16:04.089Z,20.29
2019-05-18T09:17:08.863Z,20.33
2019-05-18T09:18:13.058Z,20.35
2019-05-18T09:19:17.798Z,20.39
2019-05-18T09:20:21.985Z,20.44
2019-05-18T09:21:26.719Z,20.51
2019-05-18T09:22:30.904Z,20.56
2019-05-18T09:23:35.742Z,20.60
2019-05-18T09:24:39.929Z,20.62
2019-05-18T09:25:45.228Z,20.67
2019-05-18T09:26:49.473Z,20.72
2019-05-18T09:27:54.227Z,20.77
2019-05-18T09:28:58.511Z,20.83
2019-05-18T09:30:03.347Z,20.92
2019-05-18T09:31:07.509Z,20.99
2019-05-18T09:32:12.240Z,21.07
2019-05-18T09:33:16.471Z,21.14
2019-05-18T09:34:21.245Z,21.22
2019-05-18T09:35:25.426Z,21.28
2019-05-18T09:36:30.192Z,21.35
2019-05-18T09:37:34.447Z,21.42
2019-05-18T09:38:39.208Z,21.53
2019-05-18T09:39:43.421Z,21.62
2019-05-18T09:40:48.153Z,21.70
2019-05-18T09:41:52.344Z,21.77
2019-05-18T09:42:57.811Z,21.86
2019-05-18T09:44:02.456Z,21.95
2019-05-18T09:45:07.875Z,22.01
2019-05-18T09:46:12.027Z,22.11
2019-05-18T09:47:16.810Z,22.16
2019-05-18T09:48:20.982Z,22.17
2019-05-18T09:49:25.716Z,22.31
2019-05-18T09:50:29.920Z,22.39
2019-05-18T09:51:34.649Z,22.43
2019-05-18T09:52:46.623Z,22.49
2019-05-18T09:53:51.655Z,22.59
2019-05-18T09:54:51.521Z,22.59
2019-05-18T09:55:56.349Z,22.69
2019-05-18T09:57:00.525Z,22.74
2019-05-18T09:58:05.289Z,22.83
2019-05-18T09:59:09.445Z,22.90
2019-05-18T10:00:15.433Z,22.98
2019-05-18T10:01:19.673Z,23.03
2019-05-18T10:02:24.431Z,23.11
2019-05-18T10:03:28.705Z,23.18
2019-05-18T10:04:33.514Z,23.24
2019-05-18T10:05:37.671Z,23.31
2019-05-18T10:06:42.398Z,23.34
2019-05-18T10:07:46.724Z,23.43
2019-05-18T10:08:51.500Z,23.49
2019-05-18T10:09:55.665Z,23.54
2019-05-18T10:11:00.468Z,23.60
2019-05-18T10:12:04.691Z,23.63
2019-05-18T10:13:09.453Z,23.69
2019-05-18T10:14:13.635Z,23.72
2019-05-18T10:15:18.452Z,23.77
2019-05-18T10:16:22.660Z,23.79
2019-05-18T10:17:28.359Z,23.84
2019-05-18T10:18:32.538Z,23.88
2019-05-18T10:19:37.259Z,23.89
2019-05-18T10:20:41.448Z,23.93
2019-05-18T10:21:46.256Z,23.96
2019-05-18T10:22:59.244Z,24.00
2019-05-18T10:23:56.988Z,24.01
2019-05-18T10:25:01.158Z,24.04
2019-05-18T10:26:05.976Z,24.07
2019-05-18T10:27:10.214Z,24.07
2019-05-18T10:28:14.936Z,24.11
2019-05-18T10:29:19.208Z,24.15
2019-05-18T10:30:23.998Z,24.12
2019-05-18T10:31:28.285Z,24.14
2019-05-18T10:32:33.018Z,24.16
2019-05-18T10:33:37.194Z,24.17
2019-05-18T10:34:41.986Z,24.18
2019-05-18T10:35:46.151Z,24.27
2019-05-18T10:36:50.973Z,24.31
2019-05-18T10:37:55.235Z,24.35
2019-05-18T10:38:59.955Z,24.39
2019-05-18T10:40:09.050Z,24.46
2019-05-18T10:41:13.772Z,24.53
2019-05-18T10:42:18.080Z,24.57
2019-05-18T10:43:22.807Z,24.64
2019-05-18T10:44:26.979Z,24.66
2019-05-18T10:45:32.850Z,24.69
2019-05-18T10:46:37.015Z,24.62
2019-05-18T10:47:43.036Z,24.62
2019-05-18T10:48:47.392Z,24.61
2019-05-18T10:49:52.112Z,24.63
2019-05-18T10:50:56.327Z,24.63
2019-05-18T10:52:01.155Z,24.69
2019-05-18T10:53:05.400Z,24.75
2019-05-18T10:54:10.119Z,24.83
2019-05-18T10:55:14.280Z,24.89
2019-05-18T10:56:19.074Z,24.94
2019-05-18T10:57:24.233Z,24.97
2019-05-18T10:58:28.960Z,25.09
2019-05-18T10:59:33.133Z,25.12
2019-05-18T11:00:38.523Z,25.21
2019-05-18T11:01:44.013Z,25.28
2019-05-18T11:02:50.333Z,25.36
2019-05-18T11:03:54.496Z,25.46
2019-05-18T11:04:59.240Z,25.51
2019-05-18T11:06:03.379Z,25.61
2019-05-18T11:07:08.127Z,25.68
2019-05-18T11:08:12.336Z,25.76
2019-05-18T11:09:17.221Z,25.78
2019-05-18T11:10:21.364Z,25.78
2019-05-18T11:11:26.154Z,25.81
2019-05-18T11:12:30.342Z,25.75
2019-05-18T11:13:35.073Z,25.72
2019-05-18T11:14:39.244Z,25.69
2019-05-18T11:15:44.070Z,25.70
2019-05-18T11:16:48.291Z,25.71
2019-05-18T11:17:53.015Z,25.74
2019-05-18T11:18:57.185Z,25.74
2019-05-18T11:20:02.015Z,25.78
2019-05-18T11:21:06.233Z,25.83
2019-05-18T11:22:11.047Z,25.87
2019-05-18T11:23:15.325Z,25.88
2019-05-18T11:24:20.111Z,25.93
2019-05-18T11:25:24.346Z,25.98
2019-05-18T11:26:29.063Z,26.04
2019-05-18T11:27:33.228Z,26.03
2019-05-18T11:28:37.971Z,25.99
2019-05-18T11:29:42.135Z,26.01
2019-05-18T11:30:46.980Z,26.03
2019-05-18T11:31:52.120Z,26.08
2019-05-18T11:32:56.839Z,26.10
2019-05-18T11:34:01.012Z,26.13
2019-05-18T11:35:06.747Z,26.19
2019-05-18T11:36:11.012Z,26.19
2019-05-18T11:37:15.810Z,26.25
2019-05-18T11:38:20.090Z,26.24
2019-05-18T11:39:24.969Z,26.28
2019-05-18T11:40:29.195Z,26.27
2019-05-18T11:41:33.904Z,26.28
2019-05-18T11:42:38.079Z,26.29
2019-05-18T11:43:42.865Z,26.24
2019-05-18T11:44:47.059Z,26.20
2019-05-18T11:45:51.788Z,26.19
2019-05-18T11:46:56.041Z,26.18
2019-05-18T11:48:00.607Z,26.16
2019-05-18T11:49:04.778Z,26.17
2019-05-18T11:50:09.956Z,26.17
2019-05-18T11:51:14.120Z,26.19
2019-05-18T11:52:18.613Z,26.24
2019-05-18T11:53:23.783Z,26.28
2019-05-18T11:54:29.222Z,26.30
2019-05-18T11:55:33.391Z,26.37
2019-05-18T11:56:38.282Z,26.40
2019-05-18T11:57:42.741Z,26.43
2019-05-18T11:58:47.676Z,26.46
2019-05-18T11:59:51.843Z,26.50
2019-05-18T12:00:56.656Z,26.55
2019-05-18T12:02:00.827Z,26.56
2019-05-18T12:03:05.552Z,26.64
2019-05-18T12:04:09.787Z,26.69
2019-05-18T12:05:14.511Z,26.74
2019-05-18T12:06:18.731Z,26.78
2019-05-18T12:07:23.583Z,26.80
2019-05-18T12:08:27.790Z,26.80
2019-05-18T12:09:32.619Z,26.80
2019-05-18T12:10:36.855Z,26.79
2019-05-18T12:11:41.656Z,26.79
2019-05-18T12:12:46.985Z,26.79
2019-05-18T12:13:51.810Z,26.80
2019-05-18T12:14:55.997Z,26.82
2019-05-18T12:16:00.712Z,26.84
2019-05-18T12:17:04.905Z,26.87
2019-05-18T12:18:09.735Z,26.91
2019-05-18T12:19:14.465Z,26.90
2019-05-18T12:20:19.176Z,26.93
2019-05-18T12:21:23.343Z,26.94
2019-05-18T12:22:28.105Z,26.96
2019-05-18T12:23:32.270Z,26.99
2019-05-18T12:24:37.671Z,27.02
2019-05-18T12:25:41.854Z,27.06
2019-05-18T12:26:47.063Z,27.07
2019-05-18T12:27:51.261Z,27.06
2019-05-18T12:28:56.008Z,27.05
2019-05-18T12:30:00.168Z,27.04
2019-05-18T12:31:07.010Z,27.07
2019-05-18T12:32:11.101Z,27.12
2019-05-18T12:33:15.851Z,27.08
2019-05-18T12:34:20.012Z,27.12
2019-05-18T12:35:24.737Z,27.10
2019-05-18T12:36:28.903Z,27.12
2019-05-18T12:37:33.627Z,27.17
2019-05-18T12:38:37.864Z,27.19
2019-05-18T12:39:42.700Z,27.20
2019-05-18T12:40:46.869Z,27.19
2019-05-18T12:41:51.589Z,27.16
2019-05-18T12:42:55.759Z,27.17
2019-05-18T12:44:00.480Z,27.16
2019-05-18T12:45:05.831Z,27.17
2019-05-18T12:46:10.552Z,27.14
2019-05-18T12:47:14.841Z,27.15
2019-05-18T12:48:19.564Z,27.16
2019-05-18T12:49:24.786Z,27.05
2019-05-18T12:50:29.753Z,27.04
2019-05-18T12:51:33.918Z,27.03
2019-05-18T12:52:38.723Z,27.00
2019-05-18T12:53:42.955Z,26.98
2019-05-18T12:54:48.424Z,26.94
2019-05-18T12:55:52.610Z,26.93
2019-05-18T12:56:57.333Z,26.95
2019-05-18T12:58:01.631Z,26.97
2019-05-18T12:59:06.349Z,27.01
2019-05-18T13:00:12.211Z,27.04
2019-05-18T13:01:17.212Z,27.07
2019-05-18T13:02:21.384Z,27.08
2019-05-18T13:03:26.108Z,27.07
2019-05-18T13:04:30.277Z,27.07
2019-05-18T13:05:35.104Z,27.07
2019-05-18T13:06:39.356Z,27.07
2019-05-18T13:07:44.131Z,26.95
2019-05-18T13:08:48.364Z,26.94
2019-05-18T13:09:54.716Z,26.95
2019-05-18T13:10:58.952Z,26.97
2019-05-18T13:12:03.819Z,26.86
2019-05-18T13:13:08.647Z,26.90
2019-05-18T13:14:13.432Z,26.89
2019-05-18T13:15:18.642Z,26.88
2019-05-18T13:16:23.383Z,26.91
2019-05-18T13:17:27.687Z,26.94
2019-05-18T13:18:32.413Z,26.96
2019-05-18T13:19:36.662Z,26.97
2019-05-18T13:20:41.487Z,26.99
2019-05-18T13:21:45.667Z,27.04
2019-05-18T13:22:50.668Z,27.04
2019-05-18T13:23:54.923Z,27.07
2019-05-18T13:24:59.671Z,27.07
2019-05-18T13:26:04.642Z,27.05
2019-05-18T13:27:09.362Z,27.05
2019-05-18T13:28:13.644Z,27.10
2019-05-18T13:29:18.524Z,27.08
2019-05-18T13:30:22.710Z,27.08
2019-05-18T13:31:27.431Z,27.05
2019-05-18T13:32:32.693Z,27.05
2019-05-18T13:33:37.467Z,26.98
2019-05-18T13:34:41.629Z,26.89
2019-05-18T13:35:46.508Z,26.84
2019-05-18T13:36:50.667Z,26.79
2019-05-18T13:37:55.411Z,26.67
2019-05-18T13:38:59.603Z,26.67
2019-05-18T13:40:08.159Z,26.62
2019-05-18T13:41:12.328Z,26.56
2019-05-18T13:42:17.207Z,26.53
2019-05-18T13:43:21.395Z,26.48
2019-05-18T13:44:26.180Z,26.43
2019-05-18T13:45:30.352Z,26.38
2019-05-18T13:46:35.074Z,26.32
2019-05-18T13:47:39.243Z,26.29
2019-05-18T13:48:44.057Z,26.25
2019-05-18T13:49:48.237Z,26.21
2019-05-18T13:50:53.919Z,26.18
2019-05-18T13:51:58.159Z,26.14
2019-05-18T13:53:02.892Z,26.12
2019-05-18T13:54:07.953Z,26.08